Time;durP1;ratioP1;P1;durP2;ratioP2;P2;SDS_P1;SDS_P2;PMS_P1;PMS_P2;Temp;Humidity;BMP_temperature;BMP_pressure;BME280_temperature;BME280_humidity;BME280_pressure;Samples;Min_cycle;Max_cycle;Signal;HPM_P1;HPM_P2
2023/11/18 00:01:05;;;;;;;11.87;5.47;;;;;;;3.43;100.00;103689.31;5055743;28;20198;-71
2023/11/18 00:03:31;;;;;;;10.70;5.20;;;;;;;3.45;100.00;103701.56;5045087;28;20576;-71
2023/11/18 00:05:56;;;;;;;7.80;5.70;;;;;;;3.38;100.00;103661.25;5044602;28;20266;-71
2023/11/18 00:08:22;;;;;;;10.80;5.90;;;;;;;3.69;100.00;103678.13;5052152;28;21797;-73
2023/11/18 00:10:47;;;;;;;7.33;5.23;;;;;;;3.39;100.00;103696.59;5056599;28;20244;-71
2023/11/18 00:13:13;;;;;;;11.10;6.40;;;;;;;2.77;100.00;103676.84;5053321;28;20215;-71
2023/11/18 00:15:38;;;;;;;8.00;6.03;;;;;;;3.40;100.00;103709.75;5059026;28;20187;-71
2023/11/18 00:18:04;;;;;;;13.33;6.37;;;;;;;2.46;100.00;103638.66;5053574;28;20206;-71
2023/11/18 00:20:30;;;;;;;13.43;6.13;;;;;;;2.85;100.00;103727.69;5053901;28;20194;-72
2023/11/18 00:22:56;;;;;;;10.57;6.20;;;;;;;2.93;100.00;103699.00;5052596;28;20629;-71
2023/11/18 00:25:22;;;;;;;7.00;5.13;;;;;;;2.03;100.00;103524.28;5056352;28;20922;-71
2023/11/18 00:27:47;;;;;;;16.23;4.13;;;;;;;2.75;100.00;103723.75;5056379;28;20452;-71
2023/11/18 00:30:13;;;;;;;6.70;4.23;;;;;;;2.12;100.00;103644.78;5019789;28;20211;-71
2023/11/18 00:32:39;;;;;;;10.13;4.40;;;;;;;2.36;100.00;103679.78;5055930;28;20711;-71
2023/11/18 00:35:05;;;;;;;9.03;3.90;;;;;;;2.64;100.00;103696.03;5053407;28;20191;-71
2023/11/18 00:37:31;;;;;;;7.40;4.03;;;;;;;2.14;100.00;103735.56;5055577;28;20453;-71
2023/11/18 00:39:57;;;;;;;9.23;4.17;;;;;;;2.58;100.00;103727.28;5055798;28;20543;-71
2023/11/18 00:42:22;;;;;;;8.83;4.13;;;;;;;2.15;100.00;103726.72;5056354;28;20252;-71
2023/11/18 00:44:48;;;;;;;7.60;4.63;;;;;;;1.22;100.00;103599.63;5055040;28;20300;-71
2023/11/18 00:47:13;;;;;;;5.73;3.63;;;;;;;2.09;100.00;103703.16;5055778;28;21012;-71
2023/11/18 00:49:39;;;;;;;7.40;4.77;;;;;;;2.44;100.00;103712.91;5056623;28;20222;-71
2023/11/18 00:52:05;;;;;;;13.20;4.70;;;;;;;1.79;100.00;103720.41;5052692;28;26332;-71
2023/11/18 00:54:30;;;;;;;9.60;3.80;;;;;;;1.60;100.00;103700.16;5052836;28;20499;-70
2023/11/18 00:56:56;;;;;;;6.77;4.47;;;;;;;0.94;100.00;103576.22;5057340;28;20215;-71
2023/11/18 00:59:21;;;;;;;4.80;3.87;;;;;;;2.22;100.00;103728.13;5059557;28;20174;-70
2023/11/18 01:01:48;;;;;;;4.77;3.47;;;;;;;2.13;100.00;103729.41;5058005;28;20233;-70
2023/11/18 01:04:14;;;;;;;5.20;4.40;;;;;;;1.98;100.00;103738.94;5058042;28;20673;-71
2023/11/18 01:06:39;;;;;;;8.87;4.70;;;;;;;2.20;100.00;103736.16;5058465;28;20442;-70
2023/11/18 01:09:07;;;;;;;8.73;4.80;;;;;;;1.56;100.00;103657.97;5054123;28;20662;-71
2023/11/18 01:11:32;;;;;;;5.40;4.47;;;;;;;0.67;100.00;103492.84;5056235;28;20294;-70
2023/11/18 01:13:58;;;;;;;5.10;4.00;;;;;;;2.06;100.00;103716.56;5050381;28;20529;-70
2023/11/18 01:16:23;;;;;;;5.00;4.10;;;;;;;1.93;100.00;103671.25;5052728;28;20194;-70
2023/11/18 01:18:49;;;;;;;5.90;4.30;;;;;;;1.93;100.00;103698.59;5057574;28;20632;-71
2023/11/18 01:21:17;;;;;;;10.70;4.10;;;;;;;1.77;100.00;103716.13;5054259;28;20183;-70
2023/11/18 01:23:44;;;;;;;7.50;4.20;;;;;;;2.20;100.00;103728.22;5054247;28;20254;-70
2023/11/18 01:26:12;;;;;;;8.73;4.47;;;;;;;2.16;100.00;103736.34;5058533;28;20539;-71
2023/11/18 01:28:41;;;;;;;14.83;4.10;;;;;;;1.54;100.00;103694.22;5063195;28;20464;-71
2023/11/18 01:31:09;;;;;;;5.90;3.80;;;;;;;1.46;100.00;103653.16;5054750;28;20548;-71
2023/11/18 01:33:41;;;;;;;5.20;4.20;;;;;;;2.10;100.00;103715.47;5058936;28;20792;-71
2023/11/18 01:36:08;;;;;;;4.53;3.70;;;;;;;2.40;100.00;103692.81;5057913;28;21514;-70
2023/11/18 01:38:34;;;;;;;4.90;4.03;;;;;;;2.69;100.00;103709.03;5061294;28;20530;-70
2023/11/18 01:41:00;;;;;;;5.17;4.20;;;;;;;2.45;100.00;103663.41;5057792;28;20444;-71
2023/11/18 01:43:26;;;;;;;9.40;3.73;;;;;;;2.72;100.00;103744.22;5061459;28;20465;-70
2023/11/18 01:45:53;;;;;;;5.60;4.37;;;;;;;2.18;100.00;103631.22;5059656;28;20565;-70
2023/11/18 01:48:19;;;;;;;20.60;4.60;;;;;;;2.33;100.00;103754.94;5055392;28;20432;-70
2023/11/18 01:50:47;;;;;;;6.03;4.60;;;;;;;2.61;100.00;103743.88;5058758;28;20464;-71
2023/11/18 01:53:13;;;;;;;5.63;4.10;;;;;;;2.87;100.00;103705.47;5056806;28;21215;-71
2023/11/18 01:55:40;;;;;;;14.57;5.20;;;;;;;2.02;100.00;103686.69;5056910;28;21341;-70
2023/11/18 01:58:10;;;;;;;23.03;5.23;;;;;;;1.70;100.00;103664.41;5058269;28;20452;-70
2023/11/18 02:00:39;;;;;;;8.97;5.90;;;;;;;2.71;100.00;103725.72;5060676;28;20953;-70
2023/11/18 02:03:05;;;;;;;10.50;5.90;;;;;;;2.42;100.00;103687.41;5059630;28;20468;-71
2023/11/18 02:05:32;;;;;;;6.80;5.10;;;;;;;2.76;100.00;103712.25;5061218;28;20444;-70
2023/11/18 02:08:00;;;;;;;9.90;5.40;;;;;;;2.20;100.00;103725.56;5059131;28;20441;-71
2023/11/18 02:10:26;;;;;;;10.60;5.93;;;;;;;2.06;100.00;103712.13;5053688;28;20485;-71
2023/11/18 02:13:11;;;;;;;9.90;5.30;;;;;;;2.34;100.00;103700.19;5057398;28;20461;-70
2023/11/18 02:15:39;;;;;;;6.90;5.80;;;;;;;2.74;100.00;103699.06;5057511;28;20477;-70
2023/11/18 02:18:09;;;;;;;11.47;6.73;;;;;;;2.72;100.00;103669.16;5058237;28;20490;-70
2023/11/18 02:20:35;;;;;;;10.00;6.77;;;;;;;2.68;100.00;103652.53;5057014;28;20489;-72
2023/11/18 02:23:02;;;;;;;9.63;6.00;;;;;;;2.37;100.00;103671.78;5056220;28;20465;-70
2023/11/18 02:25:30;;;;;;;31.77;6.10;;;;;;;2.23;100.00;103655.69;5060021;28;20825;-71
2023/11/18 02:27:55;;;;;;;10.43;6.23;;;;;;;2.37;100.00;103665.59;5059507;28;20445;-70
2023/11/18 02:30:22;;;;;;;8.73;6.43;;;;;;;2.96;100.00;103674.97;5058909;28;20560;-71
2023/11/18 02:32:59;;;;;;;8.20;5.63;;;;;;;2.44;100.00;103630.78;5059459;28;20963;-70
2023/11/18 02:35:29;;;;;;;8.70;6.10;;;;;;;2.99;100.00;103684.56;5057554;28;20434;-70
2023/11/18 02:37:58;;;;;;;14.33;6.13;;;;;;;2.57;100.00;103662.81;5056034;28;20465;-70
2023/11/18 02:40:32;;;;;;;11.00;6.20;;;;;;;2.59;100.00;103663.59;5058455;28;20429;-71
2023/11/18 02:42:59;;;;;;;7.77;5.67;;;;;;;2.22;100.00;103657.47;5061861;28;20582;-70
2023/11/18 02:45:27;;;;;;;20.90;6.10;;;;;;;1.82;100.00;103595.00;5057390;28;20445;-70
2023/11/18 02:47:57;;;;;;;15.33;5.93;;;;;;;2.15;100.00;103644.63;5055877;28;20476;-71
2023/11/18 02:50:25;;;;;;;26.60;6.60;;;;;;;2.36;100.00;103690.38;5060405;28;20546;-71
2023/11/18 02:52:51;;;;;;;63.60;7.80;;;;;;;2.42;100.00;103640.59;5055163;28;21214;-71
2023/11/18 02:55:16;;;;;;;8.33;6.00;;;;;;;2.36;100.00;103585.28;5041790;28;20448;-70
2023/11/18 02:57:41;;;;;;;9.20;5.90;;;;;;;2.84;100.00;103689.72;5061587;28;20194;-70
2023/11/18 03:00:21;;;;;;;14.63;6.00;;;;;;;2.48;100.00;103669.41;5063308;28;20259;-71
2023/11/18 03:02:48;;;;;;;8.60;6.33;;;;;;;2.89;100.00;103678.84;5056464;28;20200;-71
2023/11/18 03:05:15;;;;;;;13.73;6.03;;;;;;;2.66;100.00;103677.38;5053341;28;20539;-70
2023/11/18 03:07:49;;;;;;;8.00;6.33;;;;;;;2.23;100.00;103635.38;5056779;28;21065;-71
2023/11/18 03:10:20;;;;;;;14.20;6.83;;;;;;;2.76;100.00;103677.78;5053032;28;20554;-70
2023/11/18 03:12:47;;;;;;;20.47;6.90;;;;;;;2.61;100.00;103668.81;5055282;28;20503;-70
2023/11/18 03:15:12;;;;;;;10.80;6.20;;;;;;;2.76;100.00;103669.84;5058797;28;20456;-70
2023/11/18 03:17:38;;;;;;;8.87;7.10;;;;;;;1.89;100.00;103473.81;5058103;28;20437;-70
2023/11/18 03:20:08;;;;;;;10.50;6.47;;;;;;;2.90;100.00;103657.59;5055307;28;20179;-71
2023/11/18 03:22:34;;;;;;;18.07;6.90;;;;;;;2.29;100.00;103606.88;5055222;28;20712;-71
2023/11/18 03:25:00;;;;;;;11.60;6.87;;;;;;;2.76;100.00;103648.63;5052900;28;20468;-70
2023/11/18 03:27:25;;;;;;;10.57;7.03;;;;;;;2.26;100.00;103518.69;5054762;28;20200;-70
2023/11/18 03:29:50;;;;;;;20.90;6.77;;;;;;;2.18;100.00;103557.94;5057986;28;20742;-71
2023/11/18 03:32:16;;;;;;;8.83;6.17;;;;;;;2.12;100.00;103472.66;5058502;28;20242;-71
2023/11/18 03:34:41;;;;;;;10.23;6.60;;;;;;;2.76;100.00;103567.31;5057670;28;20191;-70
2023/11/18 03:37:07;;;;;;;14.23;6.40;;;;;;;0.55;100.00;103236.31;5070133;22;21005;-78
2023/11/18 03:39:32;;;;;;;9.70;7.40;;;;;;;0.47;100.00;103336.22;5026925;28;20231;-79
2023/11/18 03:41:58;;;;;;;9.30;7.00;;;;;;;0.85;100.00;103308.81;5012479;28;20196;-79
2023/11/18 03:44:26;;;;;;;9.60;6.73;;;;;;;1.43;100.00;103441.72;5014192;28;20205;-79
2023/11/18 03:46:51;;;;;;;12.00;7.03;;;;;;;-0.72;100.00;103066.47;5025788;28;20192;-79
2023/11/18 03:49:17;;;;;;;9.67;7.13;;;;;;;0.42;100.00;103215.81;5012644;28;20521;-77
2023/11/18 03:51:43;;;;;;;9.83;7.57;;;;;;;0.65;100.00;103227.03;5023702;28;20200;-77
2023/11/18 03:54:08;;;;;;;9.17;6.80;;;;;;;1.56;100.00;103389.91;5007863;28;20831;-77
2023/11/18 03:56:34;;;;;;;13.40;7.47;;;;;;;-0.21;100.00;103145.84;5013814;28;20243;-77
2023/11/18 03:58:59;;;;;;;26.07;7.87;;;;;;;1.42;100.00;103313.03;5011460;28;20182;-77
2023/11/18 04:01:29;;;;;;;8.43;6.50;;;;;;;1.41;100.00;103358.94;5012501;28;20455;-77
2023/11/18 04:03:55;;;;;;;12.53;7.40;;;;;;;2.10;100.00;103448.91;5011229;28;20205;-77
2023/11/18 04:06:21;;;;;;;8.87;7.03;;;;;;;0.55;100.00;103171.19;5007729;28;20445;-76
2023/11/18 04:08:48;;;;;;;8.77;7.20;;;;;;;0.68;100.00;103243.59;5010905;28;20467;-77
2023/11/18 04:11:14;;;;;;;9.33;7.63;;;;;;;0.88;100.00;103250.53;5012368;28;20436;-77
2023/11/18 04:13:42;;;;;;;10.33;7.33;;;;;;;0.94;100.00;103214.16;5011644;28;20468;-76
2023/11/18 04:16:15;;;;;;;17.80;8.10;;;;;;;0.84;100.00;103222.56;5006345;28;20499;-76
2023/11/18 04:18:42;;;;;;;10.20;6.93;;;;;;;2.71;100.00;103586.09;5007686;28;20498;-76
2023/11/18 04:21:08;;;;;;;12.83;7.50;;;;;;;1.06;100.00;103261.09;5022590;28;21369;-76
2023/11/18 04:23:41;;;;;;;10.73;6.90;;;;;;;1.53;100.00;103358.31;5027060;28;20531;-76
2023/11/18 04:26:08;;;;;;;10.40;8.00;;;;;;;-0.16;100.00;103062.06;5005150;28;20479;-76
2023/11/18 04:28:36;;;;;;;12.10;8.10;;;;;;;2.82;100.00;103580.25;5009067;28;20500;-76
2023/11/18 04:31:02;;;;;;;14.73;7.60;;;;;;;0.27;100.00;103173.47;5016299;28;20470;-76
2023/11/18 04:33:29;;;;;;;10.63;7.70;;;;;;;2.16;100.00;103373.56;5012765;28;20452;-76
2023/11/18 04:35:57;;;;;;;9.60;7.50;;;;;;;1.85;100.00;103340.78;5008605;28;20518;-76
2023/11/18 04:38:23;;;;;;;11.83;8.47;;;;;;;1.48;100.00;103249.28;5008792;28;20462;-76
2023/11/18 04:40:48;;;;;;;11.33;7.87;;;;;;;1.61;100.00;103246.81;5005523;28;20440;-76
2023/11/18 04:43:14;;;;;;;11.83;8.33;;;;;;;1.29;100.00;103270.50;5010876;28;20470;-76
2023/11/18 04:45:42;;;;;;;11.20;8.50;;;;;;;1.37;100.00;103226.03;5007356;28;20185;-76
2023/11/18 04:48:07;;;;;;;12.57;7.87;;;;;;;2.09;100.00;103365.13;5007992;28;20470;-77
2023/11/18 04:50:33;;;;;;;10.87;8.30;;;;;;;1.35;100.00;103265.75;5007375;28;20997;-77
2023/11/18 04:52:59;;;;;;;14.70;8.23;;;;;;;0.60;100.00;103133.97;5012027;28;20196;-77
2023/11/18 04:55:27;;;;;;;13.93;8.67;;;;;;;0.51;100.00;103063.97;5010590;28;20575;-77
2023/11/18 04:57:53;;;;;;;11.17;8.67;;;;;;;1.67;100.00;103310.84;5016339;28;20432;-77
2023/11/18 05:00:19;;;;;;;10.67;8.80;;;;;;;0.99;100.00;103199.78;5008330;28;20452;-77
2023/11/18 05:02:48;;;;;;;11.03;8.70;;;;;;;2.96;100.00;103475.25;5009851;28;20192;-77
2023/11/18 05:05:15;;;;;;;11.50;8.60;;;;;;;0.91;100.00;103201.97;5008599;28;20445;-77
2023/11/18 05:07:42;;;;;;;11.43;9.23;;;;;;;0.83;100.00;103114.28;5021923;28;20867;-76
2023/11/18 05:10:08;;;;;;;13.90;9.37;;;;;;;1.71;100.00;103205.72;5011436;28;20468;-77
2023/11/18 05:12:34;;;;;;;13.80;9.83;;;;;;;0.97;100.00;103183.13;5030614;28;20438;-77
2023/11/18 05:15:00;;;;;;;13.47;10.10;;;;;;;0.70;100.00;103111.44;5025318;28;20459;-77
2023/11/18 05:17:27;;;;;;;14.80;11.00;;;;;;;2.37;100.00;103326.53;5013437;28;20557;-77
2023/11/18 05:19:53;;;;;;;13.90;9.53;;;;;;;0.47;100.00;103027.25;5002313;28;20463;-76
2023/11/18 05:22:20;;;;;;;14.77;11.40;;;;;;;1.15;100.00;103115.25;5008999;28;20469;-77
2023/11/18 05:24:46;;;;;;;17.20;11.57;;;;;;;1.15;100.00;103117.88;5006501;28;20936;-76
2023/11/18 05:27:11;;;;;;;18.50;11.60;;;;;;;2.04;100.00;103277.97;5007168;28;20436;-77
2023/11/18 05:29:37;;;;;;;16.40;11.87;;;;;;;2.05;100.00;103297.38;5009071;28;20756;-77
2023/11/18 05:32:02;;;;;;;17.60;12.00;;;;;;;2.01;100.00;103238.44;5011847;28;20239;-77
2023/11/18 05:34:28;;;;;;;25.13;12.53;;;;;;;2.00;100.00;103251.78;5012149;28;20270;-77
2023/11/18 05:36:55;;;;;;;26.10;12.93;;;;;;;1.82;100.00;103224.50;5011041;28;20198;-77
2023/11/18 05:39:23;;;;;;;17.93;13.13;;;;;;;2.11;100.00;103253.81;5011766;28;20439;-77
2023/11/18 05:41:49;;;;;;;17.00;12.27;;;;;;;2.30;100.00;103219.25;5009007;28;20611;-77
2023/11/18 05:44:19;;;;;;;16.50;12.87;;;;;;;1.03;100.00;103050.69;5011135;28;20502;-77
2023/11/18 05:46:47;;;;;;;18.47;12.60;;;;;;;1.27;100.00;103153.38;5022254;28;20491;-77
2023/11/18 05:49:13;;;;;;;18.30;12.50;;;;;;;1.90;100.00;103230.22;5024615;28;20474;-76
2023/11/18 05:51:43;;;;;;;16.37;11.30;;;;;;;1.22;100.00;103142.22;5007131;28;20436;-76
2023/11/18 05:54:09;;;;;;;14.53;10.83;;;;;;;1.94;100.00;103184.16;5000646;28;20243;-76
2023/11/18 05:56:34;;;;;;;19.47;12.23;;;;;;;1.87;100.00;103203.09;5008180;28;20447;-76
2023/11/18 05:59:02;;;;;;;18.37;12.47;;;;;;;1.68;100.00;103184.69;5023838;28;20440;-77
2023/11/18 06:01:29;;;;;;;17.27;11.77;;;;;;;1.67;100.00;103194.44;5021513;28;20189;-76
2023/11/18 06:03:56;;;;;;;18.17;12.37;;;;;;;1.61;100.00;103221.22;5008824;28;20555;-76
2023/11/18 06:06:22;;;;;;;18.67;12.73;;;;;;;2.39;100.00;103288.44;5008271;28;20506;-76
2023/11/18 06:08:48;;;;;;;20.27;13.03;;;;;;;2.39;100.00;103255.78;5005441;28;20468;-76
2023/11/18 06:11:15;;;;;;;21.37;12.80;;;;;;;2.34;100.00;103316.09;5007965;28;21124;-77
2023/11/18 06:13:49;;;;;;;19.70;12.77;;;;;;;2.26;100.00;103260.94;5003247;28;20476;-77
2023/11/18 06:16:20;;;;;;;20.83;13.53;;;;;;;3.38;100.00;103490.56;5010751;28;20443;-77
2023/11/18 06:18:46;;;;;;;18.17;12.70;;;;;;;1.34;100.00;103150.34;5012703;28;20432;-77
2023/11/18 06:21:24;;;;;;;21.03;14.27;;;;;;;1.91;100.00;103200.19;5009141;28;20436;-76
2023/11/18 06:23:51;;;;;;;24.37;14.37;;;;;;;1.54;100.00;103180.16;5008551;28;20487;-77
2023/11/18 06:26:17;;;;;;;25.57;15.20;;;;;;;1.44;100.00;103153.34;5009542;28;20451;-77
2023/11/18 06:28:45;;;;;;;39.53;17.60;;;;;;;1.06;100.00;103147.44;5006300;28;20472;-77
2023/11/18 06:31:11;;;;;;;23.40;15.13;;;;;;;0.58;100.00;102969.44;5007770;28;20463;-76
2023/11/18 06:33:45;;;;;;;23.03;15.70;;;;;;;1.57;100.00;103095.34;5004004;28;20457;-76
2023/11/18 06:36:13;;;;;;;27.50;15.70;;;;;;;3.55;100.00;103441.84;5006930;28;20443;-77
2023/11/18 06:38:40;;;;;;;28.70;17.37;;;;;;;2.43;100.00;103289.09;5009853;28;20527;-77
2023/11/18 06:41:08;;;;;;;25.67;16.57;;;;;;;3.05;100.00;103353.63;5012215;28;20444;-77
2023/11/18 06:43:51;;;;;;;27.70;16.50;;;;;;;1.41;100.00;103103.25;5021051;28;20496;-77
2023/11/18 06:46:20;;;;;;;29.90;16.57;;;;;;;1.94;100.00;103185.91;5022374;28;20462;-77
2023/11/18 06:48:46;;;;;;;27.67;18.50;;;;;;;2.47;100.00;103294.16;5005097;28;20477;-77
2023/11/18 06:51:11;;;;;;;28.90;18.53;;;;;;;2.70;100.00;103337.06;5023635;28;20459;-77
2023/11/18 06:53:37;;;;;;;28.60;18.90;;;;;;;1.20;100.00;103092.06;5005873;28;20957;-77
2023/11/18 06:56:02;;;;;;;29.73;17.17;;;;;;;1.34;100.00;103057.78;5010485;28;20177;-77
2023/11/18 06:58:28;;;;;;;28.87;18.20;;;;;;;0.98;100.00;103005.13;5010468;28;20181;-77
2023/11/18 07:00:53;;;;;;;25.10;16.93;;;;;;;2.36;100.00;103217.09;5016174;28;20634;-77
2023/11/18 07:03:19;;;;;;;26.03;18.07;;;;;;;1.61;100.00;103033.38;5009923;28;20217;-77
2023/11/18 07:05:45;;;;;;;25.40;16.03;;;;;;;1.52;100.00;103047.13;5008841;28;20649;-76
2023/11/18 07:08:12;;;;;;;25.07;16.30;;;;;;;1.67;100.00;103063.94;5007766;28;20451;-77
2023/11/18 07:10:38;;;;;;;26.40;17.80;;;;;;;2.03;100.00;103141.28;5011897;28;20630;-77
2023/11/18 07:13:03;;;;;;;25.23;15.70;;;;;;;1.08;100.00;102989.66;5007604;28;20467;-77
2023/11/18 07:15:29;;;;;;;24.30;15.73;;;;;;;1.15;100.00;102963.72;5012735;28;20188;-77
2023/11/18 07:17:54;;;;;;;26.47;16.50;;;;;;;1.93;100.00;103149.81;5027900;28;20869;-77
2023/11/18 07:20:20;;;;;;;24.43;16.40;;;;;;;2.56;100.00;103228.34;5007299;28;20181;-77
2023/11/18 07:22:45;;;;;;;24.70;14.60;;;;;;;2.84;100.00;103235.56;5016492;28;20268;-77
2023/11/18 07:25:10;;;;;;;26.20;14.23;;;;;;;2.22;100.00;103092.56;5014084;28;20180;-77
2023/11/18 07:27:36;;;;;;;25.30;14.70;;;;;;;1.71;100.00;103049.63;5010980;28;20208;-77
2023/11/18 07:30:02;;;;;;;23.17;14.53;;;;;;;2.89;100.00;103199.91;5022664;28;20213;-77
2023/11/18 07:32:28;;;;;;;25.17;15.67;;;;;;;2.11;100.00;103101.13;5023381;28;20642;-76
2023/11/18 07:34:55;;;;;;;21.00;14.30;;;;;;;1.68;100.00;103042.72;5012178;28;20456;-76
2023/11/18 07:37:21;;;;;;;23.20;14.90;;;;;;;2.24;100.00;103160.38;5008842;28;20849;-76
2023/11/18 07:39:48;;;;;;;25.60;16.20;;;;;;;2.66;100.00;103238.34;5011116;28;20506;-77
2023/11/18 07:42:15;;;;;;;25.27;17.03;;;;;;;2.58;100.00;103239.72;5010272;28;20217;-77
2023/11/18 07:44:40;;;;;;;24.37;16.30;;;;;;;2.63;100.00;103185.53;5007186;28;20946;-77
2023/11/18 07:47:06;;;;;;;24.37;16.57;;;;;;;2.37;100.00;103130.53;5024551;28;20495;-77
2023/11/18 07:49:33;;;;;;;26.27;16.10;;;;;;;2.08;100.00;103085.41;5007484;28;20296;-77
2023/11/18 07:51:59;;;;;;;24.43;16.10;;;;;;;1.56;100.00;103008.97;5005719;28;20185;-77
2023/11/18 07:54:24;;;;;;;22.93;15.90;;;;;;;2.26;100.00;103125.88;5007395;28;20463;-77
2023/11/18 07:56:50;;;;;;;24.37;16.80;;;;;;;1.53;100.00;103025.03;5019919;28;20182;-77
2023/11/18 07:59:18;;;;;;;23.73;16.00;;;;;;;2.17;100.00;103094.59;5027178;28;20275;-77
2023/11/18 08:01:46;;;;;;;26.97;17.33;;;;;;;2.80;100.00;103199.56;5011339;28;20196;-77
2023/11/18 08:04:13;;;;;;;28.40;17.57;;;;;;;2.43;100.00;103099.25;5013534;28;20466;-77
2023/11/18 08:06:43;;;;;;;27.00;16.80;;;;;;;2.88;100.00;103197.31;5012185;28;20440;-76
2023/11/18 08:09:13;;;;;;;27.33;17.73;;;;;;;1.48;100.00;102945.97;5014163;28;20554;-77
2023/11/18 08:14:17;;;;;;;28.63;17.67;;;;;;;3.10;100.00;103239.34;5065751;27;20993;-70
2023/11/18 08:16:42;;;;;;;28.33;17.63;;;;;;;4.08;100.00;103364.31;5056922;28;20456;-70
2023/11/18 08:19:08;;;;;;;36.30;20.37;;;;;;;3.61;100.00;103295.50;5052223;28;20660;-70
2023/11/18 08:21:34;;;;;;;29.17;18.77;;;;;;;4.20;100.00;103304.25;5052102;28;20711;-70
2023/11/18 08:24:00;;;;;;;31.77;19.53;;;;;;;4.03;100.00;103230.09;5055203;28;20210;-70
2023/11/18 08:26:26;;;;;;;28.93;18.60;;;;;;;3.31;100.00;103123.97;5054176;28;20432;-70
2023/11/18 08:28:51;;;;;;;27.33;17.73;;;;;;;3.81;100.00;103146.47;5055962;28;20198;-70
2023/11/18 08:31:17;;;;;;;26.30;17.40;;;;;;;4.02;100.00;103172.59;5067053;28;20198;-71
2023/11/18 08:33:43;;;;;;;27.53;17.63;;;;;;;3.66;100.00;103064.31;5060746;28;20236;-72
2023/11/18 08:36:08;;;;;;;27.67;18.50;;;;;;;3.98;100.00;103140.06;5062499;28;20403;-69
2023/11/18 08:38:35;;;;;;;26.33;17.30;;;;;;;3.94;100.00;103133.28;5054202;28;20838;-69
2023/11/18 08:41:01;;;;;;;27.27;18.27;;;;;;;3.80;100.00;103094.31;5053127;28;20215;-70
2023/11/18 08:43:28;;;;;;;28.90;17.13;;;;;;;4.00;100.00;103111.63;5056788;28;20480;-71
2023/11/18 08:45:54;;;;;;;30.87;19.50;;;;;;;3.82;100.00;103060.59;5052173;28;20446;-71
2023/11/18 08:48:20;;;;;;;31.50;19.00;;;;;;;3.95;100.00;103119.03;5056223;28;20443;-73
2023/11/18 08:50:46;;;;;;;31.77;18.27;;;;;;;4.03;100.00;103108.75;5060219;28;20556;-73
2023/11/18 08:53:12;;;;;;;29.50;18.17;;;;;;;4.08;100.00;103089.88;5057414;28;20257;-76
2023/11/18 08:55:56;;;;;;;33.63;20.37;;;;;;;4.24;100.00;103116.28;5058955;28;20432;-75
2023/11/18 08:58:22;;;;;;;27.60;18.97;;;;;;;4.05;100.00;103121.94;5058681;28;20182;-74
2023/11/18 09:00:57;;;;;;;29.77;19.37;;;;;;;4.20;100.00;103131.56;5058574;28;20536;-74
2023/11/18 09:03:24;;;;;;;30.17;17.83;;;;;;;3.56;100.00;103064.91;5057489;28;20474;-72
2023/11/18 09:06:03;;;;;;;27.20;18.00;;;;;;;4.30;100.00;103123.84;5060860;28;20437;-75
2023/11/18 09:08:38;;;;;;;27.97;18.33;;;;;;;4.23;100.00;103134.03;5051878;28;20493;-73
2023/11/18 09:11:06;;;;;;;29.00;18.63;;;;;;;3.80;100.00;103053.66;5058508;28;20475;-73
2023/11/18 09:13:34;;;;;;;29.00;18.37;;;;;;;4.30;100.00;103153.91;5053130;28;20447;-73
2023/11/18 09:16:08;;;;;;;29.67;18.50;;;;;;;4.15;100.00;103149.59;5055190;28;20441;-73
2023/11/18 09:18:34;;;;;;;31.67;18.87;;;;;;;4.11;100.00;103113.59;5054307;28;20972;-73
2023/11/18 09:21:05;;;;;;;34.83;19.40;;;;;;;3.99;100.00;103120.56;5056757;28;20932;-74
2023/11/18 09:23:31;;;;;;;28.57;18.10;;;;;;;4.38;100.00;103160.53;5052184;28;20556;-72
2023/11/18 09:25:57;;;;;;;28.73;19.10;;;;;;;4.23;100.00;103165.06;5044374;28;20434;-72
2023/11/18 09:28:24;;;;;;;26.53;18.67;;;;;;;4.11;100.00;103128.66;5039662;28;20435;-72
2023/11/18 09:30:53;;;;;;;27.50;18.77;;;;;;;4.33;100.00;103136.06;5044021;28;20509;-70
2023/11/18 09:33:33;;;;;;;30.00;19.10;;;;;;;4.34;100.00;103154.56;5032204;28;20830;-69
2023/11/18 09:36:12;;;;;;;32.80;19.23;;;;;;;4.02;100.00;103149.56;5040348;28;20957;-70
2023/11/18 09:38:42;;;;;;;38.53;22.60;;;;;;;3.95;100.00;103163.31;5042466;28;20445;-69
2023/11/18 09:41:11;;;;;;;33.83;21.03;;;;;;;3.56;100.00;103136.56;5045039;28;20446;-69
2023/11/18 09:43:46;;;;;;;30.70;19.80;;;;;;;4.44;100.00;103181.38;5051756;28;20472;-69
2023/11/18 09:46:26;;;;;;;30.60;19.50;;;;;;;4.53;100.00;103194.06;5057616;28;20452;-70
2023/11/18 09:48:59;;;;;;;30.07;20.10;;;;;;;4.13;100.00;103193.16;5046313;28;20525;-68
2023/11/18 09:51:29;;;;;;;30.67;21.53;;;;;;;4.30;100.00;103164.53;5054909;28;20791;-71
2023/11/18 09:54:02;;;;;;;27.10;18.80;;;;;;;4.25;100.00;103155.16;5037062;28;20454;-68
2023/11/18 09:56:43;;;;;;;30.70;19.10;;;;;;;4.38;100.00;103203.06;5037150;28;21101;-70
2023/11/18 09:59:19;;;;;;;31.90;21.00;;;;;;;4.50;100.00;103202.25;5042387;28;20458;-70
2023/11/18 10:01:53;;;;;;;31.70;21.47;;;;;;;4.19;100.00;103113.91;5040434;28;20504;-69
2023/11/18 10:04:20;;;;;;;32.13;20.43;;;;;;;4.73;100.00;103203.38;5039167;28;20454;-70
2023/11/18 10:06:52;;;;;;;35.03;20.83;;;;;;;4.60;100.00;103191.84;5042211;28;20445;-69
2023/11/18 10:09:24;;;;;;;34.83;21.10;;;;;;;4.32;100.00;103135.22;5041923;28;20451;-69
2023/11/18 10:11:50;;;;;;;31.23;19.97;;;;;;;4.83;100.00;103201.81;5044897;28;20457;-70
2023/11/18 10:14:16;;;;;;;32.40;20.77;;;;;;;4.64;100.00;103194.19;5042379;28;20451;-70
2023/11/18 10:16:46;;;;;;;30.93;19.80;;;;;;;4.85;100.00;103199.88;5055759;28;20191;-70
2023/11/18 10:19:12;;;;;;;31.20;21.00;;;;;;;4.24;100.00;103087.91;5046189;28;20442;-71
2023/11/18 10:21:41;;;;;;;35.63;20.40;;;;;;;4.53;100.00;103162.16;5045458;28;20528;-70
2023/11/18 10:24:19;;;;;;;30.43;19.80;;;;;;;5.01;100.00;103193.53;5041599;28;20338;-70
2023/11/18 10:26:45;;;;;;;28.30;19.20;;;;;;;4.92;100.00;103171.94;5039871;28;20549;-70
2023/11/18 10:29:13;;;;;;;32.63;21.07;;;;;;;4.85;100.00;103186.59;5037060;28;20447;-70
2023/11/18 10:31:45;;;;;;;28.53;18.80;;;;;;;4.85;100.00;103183.09;5040903;28;20467;-71
2023/11/18 10:34:12;;;;;;;29.17;18.40;;;;;;;4.67;100.00;103145.28;5043188;28;20430;-72
2023/11/18 10:36:38;;;;;;;29.17;20.30;;;;;;;4.59;100.00;103143.16;5040558;28;20993;-72
2023/11/18 10:39:13;;;;;;;28.60;19.80;;;;;;;4.49;100.00;103079.13;5055567;28;20959;-69
2023/11/18 10:41:43;;;;;;;27.87;19.10;;;;;;;5.09;100.00;103170.78;5044427;28;20457;-69
2023/11/18 10:44:15;;;;;;;29.43;18.23;;;;;;;4.84;100.00;103123.72;5041111;28;20481;-69
2023/11/18 10:46:53;;;;;;;25.40;17.83;;;;;;;4.77;100.00;103101.16;5039268;28;20438;-69
2023/11/18 10:49:21;;;;;;;25.93;18.60;;;;;;;4.93;100.00;103148.84;5040904;28;22571;-69
2023/11/18 10:51:47;;;;;;;30.50;18.60;;;;;;;4.88;100.00;103111.06;5037375;28;20915;-69
2023/11/18 10:54:17;;;;;;;31.37;19.43;;;;;;;5.05;100.00;103139.16;5040601;28;20474;-69
2023/11/18 10:56:58;;;;;;;25.47;17.90;;;;;;;4.77;100.00;103093.19;5040625;28;20443;-70
2023/11/18 10:59:25;;;;;;;28.57;19.17;;;;;;;4.89;100.00;103121.63;5062831;28;20445;-69
2023/11/18 11:01:51;;;;;;;32.00;18.83;;;;;;;4.84;100.00;103093.63;5036709;28;20469;-69
2023/11/18 11:04:20;;;;;;;30.30;19.53;;;;;;;4.96;100.00;103138.00;5044786;28;20458;-69
2023/11/18 11:06:52;;;;;;;26.87;18.07;;;;;;;4.84;100.00;103126.38;5039327;28;20443;-69
2023/11/18 11:09:24;;;;;;;28.37;18.40;;;;;;;5.05;100.00;103133.84;5041473;28;20487;-69
2023/11/18 11:11:52;;;;;;;28.90;19.20;;;;;;;4.91;100.00;103137.44;5036480;28;20490;-69
2023/11/18 11:14:21;;;;;;;27.83;17.93;;;;;;;4.82;100.00;103080.44;5042722;28;20612;-69
2023/11/18 11:16:51;;;;;;;27.00;19.60;;;;;;;4.81;100.00;103086.72;5045361;28;20438;-69
2023/11/18 11:19:47;;;;;;;28.10;18.70;;;;;;;5.09;100.00;103109.59;5041995;28;20479;-69